KRNH/RNH METAR and TAF weather

Enter ICAO airport designator
Station Type Date Time Source
KRNH METAR 2022/06/28 14:55 UTC NOAA

KRNH 281455Z AUTO 21007KT 10SM SCT039 SCT080 BKN100 19/14 A3009 RMK AO2 60001 T01890142


Station Type Date Time Source
KRNH Decoded METAR 2022/06/28 14:55 UTC NOAA

New Richmond, New Richmond Municipal Airport, WI, United States (KRNH) 45-08-54N 092-32-17W
Jun 28, 2022 - 10:55 AM EDT / 2022.06.28 1455 UTC
Wind: from the SSW (210 degrees) at 8 MPH (7 KT):0
Visibility: 10 mile(s):0
Sky conditions: mostly cloudy
Temperature: 66.0 F (18.9 C)
Dew Point: 57.6 F (14.2 C)
Relative Humidity: 74%
Pressure (altimeter): 30.09 in. Hg (1018 hPa)
ob: KRNH 281455Z AUTO 21007KT 10SM SCT039 SCT080 BKN100 19/14 A3009 RMK AO2 60001 T01890142
cycle: 15

Station Type Date Time Source
KRNH TAF 2022/06/28 12:39 UTC NOAA

TAF KRNH 281135Z 2812/2912 24005KT P6SM VCTS SCT070CB BKN100
TEMPO 2812/2814 4SM TSRA BR BKN050CB
FM281400 19007KT P6SM SCT060 BKN100
FM281600 22009KT P6SM SCT060 BKN100
TEMPO 2819/2822 3SM TSRA BR BKN050CB
FM282200 27009KT P6SM FEW060 SCT120
FM290200 02006KT P6SM FEW045 FEW250

Example: see airport list